createdAt,value
2018-09-03T00:01:44.354Z,26.50
2018-09-03T00:04:13.663Z,29.57
2018-09-03T00:06:42.218Z,27.27
2018-09-03T00:09:11.453Z,28.30
2018-09-03T00:11:39.950Z,28.83
2018-09-03T00:14:08.458Z,28.37
2018-09-03T00:16:36.941Z,28.30
2018-09-03T00:19:05.439Z,28.70
2018-09-03T00:21:34.975Z,26.33
2018-09-03T00:24:03.455Z,29.93
2018-09-03T00:26:31.913Z,27.35
2018-09-03T00:29:00.470Z,27.73
2018-09-03T00:31:34.435Z,26.70
2018-09-03T00:34:08.345Z,27.07
2018-09-03T00:36:42.078Z,26.40
2018-09-03T00:39:16.185Z,27.60
2018-09-03T00:41:49.936Z,28.00
2018-09-03T00:44:23.763Z,23.30
2018-09-03T00:46:59.165Z,24.10
2018-09-03T00:49:27.747Z,29.67
2018-09-03T00:51:56.221Z,26.73
2018-09-03T00:54:24.661Z,27.77
2018-09-03T00:56:53.749Z,30.53
2018-09-03T00:59:22.225Z,28.97
2018-09-03T01:01:50.925Z,29.10
2018-09-03T01:04:20.231Z,28.70
2018-09-03T01:06:48.706Z,27.47
2018-09-03T01:09:17.362Z,27.65
2018-09-03T01:11:45.842Z,29.13
2018-09-03T01:19:14.983Z,30.97
2018-09-03T01:21:44.056Z,29.73
2018-09-03T01:24:12.530Z,29.43
2018-09-03T01:26:41.126Z,30.03
2018-09-03T01:29:09.590Z,31.03
2018-09-03T01:31:38.061Z,33.03
2018-09-03T01:34:06.581Z,33.37
2018-09-03T01:36:35.078Z,30.23
2018-09-03T01:39:04.890Z,29.23
2018-09-03T01:41:33.803Z,33.30
2018-09-03T01:44:02.301Z,32.48
2018-09-03T01:46:30.770Z,33.90
2018-09-03T01:48:59.291Z,32.53
2018-09-03T01:51:27.782Z,33.70
2018-09-03T01:53:56.252Z,29.80
2018-09-03T01:56:24.757Z,33.20
2018-09-03T01:58:53.214Z,30.97
2018-09-03T02:01:21.690Z,30.54
2018-09-03T02:03:50.656Z,29.30
2018-09-03T02:06:20.130Z,32.70
2018-09-03T02:08:48.606Z,35.63
2018-09-03T02:11:20.066Z,31.22
2018-09-03T02:13:48.598Z,31.53
2018-09-03T02:16:18.413Z,31.23
2018-09-03T02:18:46.960Z,29.20
2018-09-03T02:26:11.578Z,32.40
2018-09-03T02:28:40.486Z,33.73
2018-09-03T02:31:08.951Z,33.80
2018-09-03T02:33:37.510Z,32.00
2018-09-03T02:36:06.039Z,32.50
2018-09-03T02:38:34.515Z,32.30
2018-09-03T02:41:03.015Z,30.70
2018-09-03T02:43:31.485Z,31.50
2018-09-03T02:45:59.953Z,32.53
2018-09-03T02:48:28.510Z,33.67
2018-09-03T02:50:56.999Z,32.93
2018-09-03T02:53:25.457Z,29.07
2018-09-03T02:55:53.990Z,28.80
2018-09-03T02:58:22.505Z,28.97
2018-09-03T03:00:51.007Z,29.40
2018-09-03T03:03:19.534Z,28.52
2018-09-03T03:05:48.035Z,28.70
2018-09-03T03:08:18.610Z,36.28
2018-09-03T03:10:47.979Z,29.83
2018-09-03T03:13:17.394Z,29.48
2018-09-03T03:15:45.919Z,28.57
2018-09-03T03:18:37.013Z,24.98
2018-09-03T03:21:05.706Z,21.95
2018-09-03T03:23:34.274Z,21.80
2018-09-03T03:26:03.547Z,23.67
2018-09-03T03:28:32.407Z,22.83
2018-09-03T03:31:00.878Z,24.17
2018-09-03T03:33:29.407Z,23.20
2018-09-03T03:35:57.902Z,23.23
2018-09-03T03:38:26.369Z,22.75
2018-09-03T03:40:54.853Z,22.80
2018-09-03T03:43:23.322Z,23.10
2018-09-03T03:45:51.844Z,21.13
2018-09-03T03:48:21.145Z,22.50
2018-09-03T03:50:49.602Z,23.63
2018-09-03T03:53:18.057Z,21.00
2018-09-03T03:55:46.547Z,21.43
2018-09-03T04:03:11.012Z,17.63
2018-09-03T04:05:40.474Z,18.48
2018-09-03T04:08:08.938Z,23.10
2018-09-03T04:10:39.938Z,21.55
2018-09-03T04:13:08.461Z,21.75
2018-09-03T04:15:36.913Z,22.40
2018-09-03T04:18:05.494Z,22.07
2018-09-03T04:20:33.993Z,19.80
2018-09-03T04:23:02.532Z,24.40
2018-09-03T04:25:30.971Z,22.67
2018-09-03T04:27:59.485Z,21.37
2018-09-03T04:30:28.006Z,21.93
2018-09-03T04:32:57.257Z,20.30
2018-09-03T04:35:25.734Z,26.93
2018-09-03T04:37:54.249Z,20.50
2018-09-03T04:40:22.798Z,20.47
2018-09-03T04:42:51.325Z,22.30
2018-09-03T04:45:19.807Z,29.63
2018-09-03T04:47:48.351Z,24.20
2018-09-03T04:50:17.440Z,25.68
2018-09-03T04:52:46.247Z,23.60
2018-09-03T05:00:11.841Z,23.97
2018-09-03T05:02:40.719Z,26.13
2018-09-03T05:05:09.225Z,26.40
2018-09-03T05:07:37.742Z,26.60
2018-09-03T05:10:06.319Z,27.40
2018-09-03T05:12:35.355Z,26.87
2018-09-03T05:15:04.864Z,27.00
2018-09-03T05:17:33.330Z,27.25
2018-09-03T05:20:01.811Z,27.97
2018-09-03T05:22:30.538Z,23.47
2018-09-03T05:24:58.990Z,25.27
2018-09-03T05:27:27.465Z,25.20
2018-09-03T05:29:56.018Z,25.40
2018-09-03T05:32:24.506Z,24.92
2018-09-03T05:34:52.958Z,26.77
2018-09-03T05:37:21.481Z,27.34
2018-09-03T05:39:49.946Z,28.17
2018-09-03T05:42:18.425Z,28.50
2018-09-03T05:44:47.674Z,30.47
2018-09-03T05:47:17.828Z,30.37
2018-09-03T05:49:46.807Z,33.40
2018-09-03T05:57:12.671Z,32.20
2018-09-03T05:59:41.189Z,35.17
2018-09-03T06:02:09.786Z,32.70
2018-09-03T06:04:38.522Z,32.60
2018-09-03T06:07:07.467Z,34.57
2018-09-03T06:09:35.960Z,32.60
2018-09-03T06:12:04.525Z,32.70
2018-09-03T06:14:33.441Z,31.33
2018-09-03T06:17:02.814Z,32.93
2018-09-03T06:19:31.323Z,30.93
2018-09-03T06:21:59.841Z,31.20
2018-09-03T06:24:28.335Z,30.93
2018-09-03T06:26:57.415Z,31.93
2018-09-03T06:29:25.931Z,31.13
2018-09-03T06:31:54.397Z,30.62
2018-09-03T06:34:22.899Z,32.65
2018-09-03T06:36:51.376Z,33.13
2018-09-03T06:39:19.870Z,31.87
2018-09-03T06:41:48.439Z,31.43
2018-09-03T06:44:17.422Z,31.53
2018-09-03T06:46:45.890Z,30.50
2018-09-03T06:54:15.198Z,28.00
2018-09-03T06:56:43.693Z,28.50
2018-09-03T06:59:12.194Z,25.77
2018-09-03T07:01:40.711Z,26.07
2018-09-03T07:04:09.200Z,25.90
2018-09-03T07:06:37.773Z,26.00
2018-09-03T07:09:08.846Z,25.23
2018-09-03T07:11:37.029Z,22.70
2018-09-03T07:14:05.627Z,21.70
2018-09-03T07:16:35.258Z,20.55
2018-09-03T07:19:03.738Z,19.77
2018-09-03T07:21:32.247Z,18.77
2018-09-03T07:24:00.803Z,19.30
2018-09-03T07:26:29.355Z,20.43
2018-09-03T07:28:57.879Z,19.50
2018-09-03T07:31:26.358Z,19.10
2018-09-03T07:33:54.850Z,17.67
2018-09-03T07:36:23.341Z,16.33
2018-09-03T07:38:52.557Z,15.60
2018-09-03T07:41:21.014Z,15.70
2018-09-03T07:43:49.813Z,16.17
2018-09-03T07:46:18.380Z,16.37
2018-09-03T07:48:46.865Z,17.67
2018-09-03T07:56:16.105Z,18.57
2018-09-03T07:58:45.700Z,18.40
2018-09-03T08:06:10.143Z,22.17
2018-09-03T08:08:38.908Z,20.33
2018-09-03T08:11:07.476Z,18.13
2018-09-03T08:13:39.336Z,16.00
2018-09-03T08:16:08.291Z,14.93
2018-09-03T08:18:37.501Z,13.50
2018-09-03T08:21:06.185Z,13.83
2018-09-03T08:23:34.707Z,11.57
2018-09-03T08:26:04.283Z,12.13
2018-09-03T08:28:33.322Z,11.40
2018-09-03T08:31:01.986Z,10.80
2018-09-03T08:33:31.089Z,11.50
2018-09-03T08:36:00.210Z,11.50
2018-09-03T08:38:28.689Z,11.10
2018-09-03T08:40:57.441Z,11.73
2018-09-03T08:43:25.966Z,12.80
2018-09-03T08:45:54.450Z,12.78
2018-09-03T08:48:22.946Z,13.50
2018-09-03T08:50:51.457Z,13.63
2018-09-03T08:53:19.979Z,14.27
2018-09-03T08:55:48.489Z,14.70
2018-09-03T08:58:18.169Z,15.72
2018-09-03T09:00:46.677Z,15.60
2018-09-03T09:08:14.431Z,14.90
2018-09-03T09:10:42.946Z,14.83
2018-09-03T09:13:11.478Z,14.65
2018-09-03T09:15:40.304Z,15.27
2018-09-03T09:18:08.773Z,15.30
2018-09-03T09:20:41.130Z,16.10
2018-09-03T09:23:09.598Z,14.30
2018-09-03T09:25:38.131Z,15.47
2018-09-03T09:28:06.642Z,13.23
2018-09-03T09:30:35.148Z,14.23
2018-09-03T09:33:03.633Z,15.00
2018-09-03T09:35:32.662Z,14.20
2018-09-03T09:38:01.113Z,14.33
2018-09-03T09:40:29.627Z,14.30
2018-09-03T09:42:59.002Z,13.40
2018-09-03T09:45:27.627Z,13.83
2018-09-03T09:47:56.095Z,13.37
2018-09-03T09:50:24.648Z,11.90
2018-09-03T09:52:53.145Z,9.80
2018-09-03T09:55:21.642Z,10.60
2018-09-03T09:57:52.152Z,10.83
2018-09-03T10:00:25.863Z,10.43
2018-09-03T10:02:54.741Z,11.93
2018-09-03T10:05:23.234Z,12.50
2018-09-03T10:07:51.733Z,12.30
2018-09-03T10:10:20.268Z,15.90
2018-09-03T10:12:48.729Z,14.27
2018-09-03T10:15:17.438Z,13.98
2018-09-03T10:17:46.222Z,13.70
2018-09-03T10:25:15.613Z,14.47
2018-09-03T10:27:44.168Z,12.50
2018-09-03T10:30:13.535Z,13.30
2018-09-03T10:32:42.084Z,12.50
2018-09-03T10:35:10.577Z,13.20
2018-09-03T10:37:39.557Z,11.80
2018-09-03T10:40:08.742Z,13.70
2018-09-03T10:42:37.229Z,12.50
2018-09-03T10:45:05.791Z,12.50
2018-09-03T10:47:34.374Z,14.10
2018-09-03T10:50:03.422Z,12.73
2018-09-03T10:52:31.930Z,12.63
2018-09-03T10:55:00.483Z,12.80
2018-09-03T10:57:29.005Z,13.40
2018-09-03T10:59:57.558Z,12.33
2018-09-03T11:02:26.705Z,12.90
2018-09-03T11:04:55.244Z,11.63
2018-09-03T11:07:23.758Z,11.97
2018-09-03T11:09:52.293Z,12.30
2018-09-03T11:12:20.847Z,13.28
2018-09-03T11:14:49.371Z,13.47
2018-09-03T11:17:18.341Z,13.37
2018-09-03T11:19:50.105Z,14.20
2018-09-03T11:22:20.106Z,13.50
2018-09-03T11:24:48.569Z,13.20
2018-09-03T11:27:18.215Z,13.80
2018-09-03T11:29:46.751Z,12.67
2018-09-03T11:37:14.831Z,12.13
2018-09-03T11:39:43.318Z,13.67
2018-09-03T11:42:13.441Z,12.33
2018-09-03T11:44:42.852Z,11.00
2018-09-03T11:47:11.370Z,12.37
2018-09-03T11:49:40.783Z,11.00
2018-09-03T11:52:09.346Z,11.07
2018-09-03T11:54:37.907Z,10.50
2018-09-03T11:57:06.443Z,10.72
2018-09-03T11:59:35.147Z,9.50
2018-09-03T12:02:04.850Z,9.67
2018-09-03T12:04:33.966Z,10.60
2018-09-03T12:07:03.139Z,9.05
2018-09-03T12:09:32.302Z,10.03
2018-09-03T12:12:00.801Z,9.00
2018-09-03T12:14:32.632Z,9.10
2018-09-03T12:17:01.225Z,10.37
2018-09-03T12:19:29.697Z,8.83
2018-09-03T12:21:58.222Z,8.93
2018-09-03T12:24:26.710Z,10.10
2018-09-03T12:26:55.198Z,9.37
2018-09-03T12:29:24.995Z,10.13
2018-09-03T12:31:53.475Z,11.20
2018-09-03T12:34:21.961Z,9.70
2018-09-03T12:36:50.525Z,8.83
2018-09-03T12:39:18.974Z,8.70
2018-09-03T12:41:47.465Z,8.67
2018-09-03T12:44:17.403Z,8.00
2018-09-03T12:46:46.476Z,6.43
2018-09-03T12:54:11.391Z,5.07
2018-09-03T12:56:40.446Z,5.77
2018-09-03T12:59:08.946Z,5.83
2018-09-03T13:01:37.468Z,5.77
2018-09-03T13:04:06.090Z,5.50
2018-09-03T13:06:34.587Z,5.95
2018-09-03T13:09:03.217Z,6.13
2018-09-03T13:11:31.754Z,5.87
2018-09-03T13:14:00.254Z,6.03
2018-09-03T13:16:29.211Z,6.73
2018-09-03T13:18:57.740Z,7.00
2018-09-03T13:21:26.210Z,8.63
2018-09-03T13:23:54.798Z,7.43
2018-09-03T13:26:23.758Z,7.80
2018-09-03T13:28:53.053Z,6.70
2018-09-03T13:31:22.966Z,6.70
2018-09-03T13:33:51.518Z,6.60
2018-09-03T13:36:20.011Z,7.07
2018-09-03T13:38:49.011Z,6.90
2018-09-03T13:41:17.524Z,7.28
2018-09-03T13:43:47.931Z,7.03
2018-09-03T13:46:17.407Z,7.22
2018-09-03T13:48:46.618Z,7.07
2018-09-03T13:56:11.654Z,6.33
2018-09-03T13:58:40.604Z,6.70
2018-09-03T14:01:09.106Z,6.53
2018-09-03T14:03:37.613Z,6.10
2018-09-03T14:06:06.898Z,6.23
2018-09-03T14:08:35.614Z,6.30
2018-09-03T14:11:04.150Z,5.60
2018-09-03T14:13:32.971Z,5.93
2018-09-03T14:16:01.480Z,6.60
2018-09-03T14:18:30.054Z,6.20
2018-09-03T14:20:58.591Z,7.15
2018-09-03T14:23:27.129Z,6.20
2018-09-03T14:25:55.639Z,6.63
2018-09-03T14:28:24.141Z,7.30
2018-09-03T14:30:53.500Z,6.53
2018-09-03T14:33:22.995Z,7.50
2018-09-03T14:35:51.510Z,6.78
2018-09-03T14:38:20.027Z,6.27
2018-09-03T14:40:49.006Z,6.33
2018-09-03T14:43:17.500Z,7.58
2018-09-03T14:45:46.017Z,6.30
2018-09-03T14:53:14.941Z,7.77
2018-09-03T14:55:43.718Z,6.70
2018-09-03T14:58:12.666Z,6.77
2018-09-03T15:00:41.568Z,6.73
2018-09-03T15:03:10.053Z,6.50
2018-09-03T15:05:38.546Z,6.93
2018-09-03T15:08:07.153Z,6.90
2018-09-03T15:10:35.720Z,7.13
2018-09-03T15:13:04.234Z,7.20
2018-09-03T15:15:33.541Z,6.77
2018-09-03T15:18:02.527Z,7.63
2018-09-03T15:20:31.057Z,8.33
2018-09-03T15:22:59.629Z,7.13
2018-09-03T15:25:28.498Z,7.77
2018-09-03T15:27:57.029Z,7.50
2018-09-03T15:30:25.566Z,9.00
2018-09-03T15:32:54.102Z,6.63
2018-09-03T15:35:23.070Z,6.60
2018-09-03T15:37:51.618Z,8.10
2018-09-03T15:40:20.100Z,6.97
2018-09-03T15:42:48.632Z,6.67
2018-09-03T15:45:18.018Z,6.95
2018-09-03T15:47:46.585Z,6.27
2018-09-03T15:55:14.792Z,6.50
2018-09-03T15:57:43.282Z,6.40
2018-09-03T16:00:11.821Z,5.75
2018-09-03T16:02:40.716Z,6.70
2018-09-03T16:05:09.230Z,5.70
2018-09-03T16:07:37.721Z,5.93
2018-09-03T16:10:06.327Z,5.30
2018-09-03T16:12:34.843Z,5.97
2018-09-03T16:15:03.329Z,5.50
2018-09-03T16:17:31.843Z,5.67
2018-09-03T16:20:01.140Z,9.07
2018-09-03T16:22:29.634Z,11.20
2018-09-03T16:24:59.042Z,11.13
2018-09-03T16:27:27.716Z,5.73
2018-09-03T16:29:56.117Z,5.50
2018-09-03T16:32:24.620Z,6.77
2018-09-03T16:34:53.114Z,6.50
2018-09-03T16:37:22.267Z,6.87
2018-09-03T16:39:50.795Z,7.30
2018-09-03T16:42:19.418Z,6.33
2018-09-03T16:44:47.897Z,6.43
2018-09-03T16:47:18.215Z,7.20
2018-09-03T16:49:46.699Z,6.83
2018-09-03T16:57:10.946Z,7.30
2018-09-03T16:59:39.425Z,7.10
2018-09-03T17:02:07.914Z,7.30
2018-09-03T17:04:36.710Z,6.83
2018-09-03T17:07:05.267Z,8.00
2018-09-03T17:09:33.859Z,7.00
2018-09-03T17:12:02.369Z,7.13
2018-09-03T17:14:31.564Z,7.13
2018-09-03T17:17:00.306Z,7.60
2018-09-03T17:19:28.834Z,7.33
2018-09-03T17:21:57.313Z,7.00
2018-09-03T17:24:25.809Z,7.33
2018-09-03T17:26:54.922Z,8.80
2018-09-03T17:29:23.414Z,9.00
2018-09-03T17:31:51.928Z,9.30
2018-09-03T17:34:21.071Z,10.10
2018-09-03T17:36:49.597Z,8.70
2018-09-03T17:39:18.643Z,7.37
2018-09-03T17:41:47.158Z,7.77
2018-09-03T17:44:17.500Z,9.13
2018-09-03T17:46:45.978Z,9.20
2018-09-03T17:54:10.433Z,9.87
2018-09-03T17:56:38.943Z,9.50
2018-09-03T17:59:07.438Z,9.53
2018-09-03T18:01:35.975Z,10.13
2018-09-03T18:04:05.002Z,9.25
2018-09-03T18:06:34.759Z,9.55
2018-09-03T18:09:03.542Z,9.20
2018-09-03T18:11:32.079Z,8.63
2018-09-03T18:14:00.582Z,8.30
2018-09-03T18:16:30.278Z,9.67
2018-09-03T18:18:58.775Z,9.37
2018-09-03T18:21:27.280Z,9.90
2018-09-03T18:23:55.801Z,9.07
2018-09-03T18:26:24.282Z,10.48
2018-09-03T18:28:52.984Z,9.80
2018-09-03T18:31:21.503Z,9.90
2018-09-03T18:33:49.981Z,10.03
2018-09-03T18:36:18.461Z,10.48
2018-09-03T18:38:48.385Z,11.07
2018-09-03T18:41:18.207Z,11.50
2018-09-03T18:43:46.666Z,10.40
2018-09-03T18:51:13.129Z,10.03
2018-09-03T18:53:42.504Z,11.13
2018-09-03T18:56:11.043Z,10.33
2018-09-03T18:58:40.265Z,12.40
2018-09-03T19:01:08.760Z,10.17
2018-09-03T19:03:37.262Z,9.70
2018-09-03T19:06:06.230Z,10.77
2018-09-03T19:08:34.991Z,9.17
2018-09-03T19:11:03.548Z,10.07
2018-09-03T19:13:32.083Z,9.30
2018-09-03T19:16:00.605Z,10.00
2018-09-03T19:18:29.515Z,11.03
2018-09-03T19:20:58.712Z,10.80
2018-09-03T19:23:27.234Z,11.30
2018-09-03T19:25:57.088Z,11.70
2018-09-03T19:28:25.724Z,13.03
2018-09-03T19:30:54.313Z,15.83
2018-09-03T19:33:22.890Z,13.70
2018-09-03T19:35:51.489Z,17.03
2018-09-03T19:38:20.165Z,17.30
2018-09-03T19:40:49.147Z,15.63
2018-09-03T19:43:18.457Z,15.40
2018-09-03T19:45:46.953Z,16.80
2018-09-03T19:53:11.213Z,17.50
2018-09-03T19:55:39.875Z,16.93
2018-09-03T19:58:08.386Z,17.95
2018-09-03T20:00:37.905Z,18.47
2018-09-03T20:03:06.464Z,18.70
2018-09-03T20:05:35.007Z,20.47
2018-09-03T20:08:03.526Z,18.60
2018-09-03T20:10:32.050Z,17.93
2018-09-03T20:13:01.426Z,18.27
2018-09-03T20:15:30.728Z,19.70
2018-09-03T20:17:59.273Z,19.17
2018-09-03T20:20:27.782Z,19.13
2018-09-03T20:22:56.869Z,19.37
2018-09-03T20:25:25.347Z,20.27
2018-09-03T20:27:53.846Z,19.23
2018-09-03T20:30:22.402Z,21.60
2018-09-03T20:32:50.927Z,21.60
2018-09-03T20:35:19.416Z,23.33
2018-09-03T20:37:47.947Z,20.87
2018-09-03T20:40:17.471Z,22.77
2018-09-03T20:42:46.055Z,23.30
2018-09-03T20:50:15.371Z,24.37
2018-09-03T20:52:43.873Z,24.10
2018-09-03T20:55:12.821Z,21.63
2018-09-03T20:57:41.322Z,23.87
2018-09-03T21:00:10.014Z,24.13
2018-09-03T21:02:38.818Z,24.43
2018-09-03T21:05:07.646Z,28.87
2018-09-03T21:07:36.138Z,23.50
2018-09-03T21:10:04.722Z,24.03
2018-09-03T21:12:33.246Z,26.67
2018-09-03T21:15:02.598Z,24.63
2018-09-03T21:17:32.375Z,25.00
2018-09-03T21:20:01.292Z,24.50
2018-09-03T21:22:29.810Z,26.20
2018-09-03T21:24:58.614Z,25.43
2018-09-03T21:27:27.177Z,24.17
2018-09-03T21:29:55.735Z,24.27
2018-09-03T21:32:24.298Z,24.60
2018-09-03T21:34:53.602Z,27.10
2018-09-03T21:37:22.101Z,25.20
2018-09-03T21:39:50.672Z,24.57
2018-09-03T21:42:19.223Z,27.77
2018-09-03T21:44:47.742Z,24.33
2018-09-03T21:47:18.035Z,26.25
2018-09-03T21:49:46.549Z,26.70
2018-09-03T21:57:16.082Z,26.10
2018-09-03T21:59:44.578Z,28.17
2018-09-03T22:02:13.519Z,26.93
2018-09-03T22:04:42.853Z,27.30
2018-09-03T22:07:11.958Z,26.65
2018-09-03T22:09:40.725Z,27.77
2018-09-03T22:12:09.366Z,27.80
2018-09-03T22:14:37.865Z,28.07
2018-09-03T22:17:06.394Z,27.85
2018-09-03T22:19:35.433Z,27.47
2018-09-03T22:22:04.028Z,28.20
2018-09-03T22:24:32.583Z,29.20
2018-09-03T22:27:01.177Z,27.17
2018-09-03T22:29:29.674Z,28.73
2018-09-03T22:31:58.162Z,28.23
2018-09-03T22:34:26.666Z,29.70
2018-09-03T22:36:55.167Z,29.57
2018-09-03T22:39:23.658Z,30.17
2018-09-03T22:41:52.861Z,29.77
2018-09-03T22:44:21.382Z,31.15
2018-09-03T22:46:49.873Z,31.63
2018-09-03T22:49:19.098Z,30.65
2018-09-03T22:51:47.617Z,33.80
2018-09-03T22:54:17.360Z,33.28
2018-09-03T22:56:46.247Z,34.20
2018-09-03T23:04:11.423Z,31.17
2018-09-03T23:06:39.898Z,30.77
2018-09-03T23:09:08.825Z,31.77
2018-09-03T23:11:37.389Z,30.17
2018-09-03T23:14:06.734Z,32.30
2018-09-03T23:16:35.234Z,34.20
2018-09-03T23:19:04.316Z,31.57
2018-09-03T23:21:32.847Z,32.63
2018-09-03T23:24:01.337Z,32.93
2018-09-03T23:26:30.290Z,35.10
2018-09-03T23:28:58.773Z,36.97
2018-09-03T23:31:27.257Z,33.18
2018-09-03T23:33:55.773Z,35.35
2018-09-03T23:36:24.249Z,33.73
2018-09-03T23:38:52.757Z,33.57
2018-09-03T23:41:21.296Z,33.83
2018-09-03T23:43:49.782Z,35.73
2018-09-03T23:46:18.318Z,32.60
2018-09-03T23:48:47.454Z,36.57
2018-09-03T23:56:12.066Z,35.87
2018-09-03T23:58:40.558Z,34.80
